Time;durP1;ratioP1;P1;durP2;ratioP2;P2;SDS_P1;SDS_P2;PMS_P1;PMS_P2;Temp;Humidity;BMP_temperature;BMP_pressure;BME280_temperature;BME280_humidity;BME280_pressure;Samples;Min_cycle;Max_cycle;Signal;HPM_P1;HPM_P2
2021/09/29 00:02:21;;;;;;;6.95;3.05;;;;;;;14.96;58.45;100031.72;6095670;23;20022;-78
2021/09/29 00:04:54;;;;;;;4.47;2.45;;;;;;;14.91;58.93;100032.03;6095912;23;20446;-78
2021/09/29 00:07:20;;;;;;;5.10;2.97;;;;;;;14.92;58.38;100028.41;6096129;23;20030;-78
2021/09/29 00:09:48;;;;;;;8.00;2.67;;;;;;;14.90;58.67;100024.19;6096430;23;20031;-78
2021/09/29 00:12:15;;;;;;;5.18;2.63;;;;;;;14.88;58.56;100021.66;6095897;23;20033;-78
2021/09/29 00:14:42;;;;;;;8.82;3.80;;;;;;;14.87;58.74;100014.66;6095389;23;20031;-78
2021/09/29 00:17:08;;;;;;;4.85;2.97;;;;;;;14.85;58.68;100017.41;6095589;23;20029;-78
2021/09/29 00:19:35;;;;;;;7.22;3.20;;;;;;;14.84;59.04;100020.19;6095779;23;20022;-78
2021/09/29 00:22:02;;;;;;;9.40;3.08;;;;;;;14.83;59.08;100013.19;6096165;23;20022;-78
2021/09/29 00:24:29;;;;;;;6.80;2.88;;;;;;;14.82;59.00;100012.34;6096098;23;20105;-78
2021/09/29 00:27:04;;;;;;;5.18;2.50;;;;;;;14.78;59.58;100016.19;6096224;23;20327;-78
2021/09/29 00:29:30;;;;;;;4.50;2.17;;;;;;;14.81;58.97;100010.63;6095981;23;20029;-78
2021/09/29 00:31:59;;;;;;;6.18;2.60;;;;;;;14.80;59.32;100002.81;6095347;23;20101;-78
2021/09/29 00:34:32;;;;;;;5.30;3.15;;;;;;;14.80;59.13;100005.47;6095739;23;20028;-78
2021/09/29 00:37:00;;;;;;;6.65;2.78;;;;;;;14.79;59.28;99998.44;6095421;23;20030;-78
2021/09/29 00:39:28;;;;;;;8.32;3.28;;;;;;;14.78;59.25;100002.06;6095974;23;20102;-78
2021/09/29 00:41:56;;;;;;;7.25;3.28;;;;;;;14.78;59.23;100000.28;6095405;23;20030;-78
2021/09/29 00:44:23;;;;;;;6.90;3.00;;;;;;;14.78;59.14;99994.13;6095619;23;20033;-78
2021/09/29 00:46:50;;;;;;;9.00;2.92;;;;;;;14.77;59.15;99987.97;6095730;23;20037;-78
2021/09/29 00:49:18;;;;;;;8.20;3.15;;;;;;;14.76;59.29;99983.63;6096760;23;20030;-78
2021/09/29 00:51:45;;;;;;;4.80;3.00;;;;;;;14.78;59.53;99987.03;6095535;23;20025;-78
2021/09/29 00:54:12;;;;;;;4.22;2.92;;;;;;;14.78;59.55;99980.88;6095417;23;20030;-78
2021/09/29 00:56:38;;;;;;;8.07;2.55;;;;;;;14.78;59.49;99976.44;6097020;23;20022;-78
2021/09/29 00:59:05;;;;;;;6.90;2.92;;;;;;;14.80;59.61;99978.97;6095507;23;20075;-78
2021/09/29 01:01:33;;;;;;;4.43;2.78;;;;;;;14.79;59.50;99980.75;6095481;23;20023;-78
2021/09/29 01:04:01;;;;;;;6.90;2.83;;;;;;;14.81;59.51;99983.31;6095668;23;20399;-78
2021/09/29 01:06:52;;;;;;;8.02;3.03;;;;;;;14.77;60.24;99969.41;6095774;23;20029;-78
2021/09/29 01:09:40;;;;;;;7.63;2.90;;;;;;;14.82;59.71;99961.16;6095550;23;20031;-78
2021/09/29 01:13:03;;;;;;;3.67;2.40;;;;;;;14.79;60.24;99951.63;6097453;23;20022;-78
2021/09/29 01:16:05;;;;;;;5.18;2.53;;;;;;;14.86;60.07;99944.06;6069174;23;20113;-78
2021/09/29 01:18:35;;;;;;;7.60;3.00;;;;;;;14.87;60.04;99945.75;6097542;23;20342;-78
2021/09/29 01:21:06;;;;;;;5.97;2.88;;;;;;;14.87;59.88;99944.94;6097785;23;20665;-78
2021/09/29 01:24:10;;;;;;;8.35;3.25;;;;;;;14.85;60.22;99939.72;6097667;23;20458;-78
2021/09/29 01:26:39;;;;;;;9.02;3.10;;;;;;;14.89;59.76;99935.91;6097576;23;20030;-78
2021/09/29 01:29:20;;;;;;;5.65;3.10;;;;;;;14.85;60.37;99934.44;6098553;23;20033;-78
2021/09/29 01:31:50;;;;;;;5.88;2.80;;;;;;;14.89;59.88;99933.25;6097544;23;20030;-78
2021/09/29 01:34:19;;;;;;;12.02;2.88;;;;;;;14.89;60.14;99924.44;6097132;23;20037;-78
2021/09/29 01:36:47;;;;;;;4.63;2.40;;;;;;;14.90;59.68;99920.81;6097854;23;20022;-78
2021/09/29 01:39:17;;;;;;;4.72;2.60;;;;;;;14.89;59.92;99917.34;6097127;23;20453;-78
2021/09/29 01:41:45;;;;;;;6.93;2.90;;;;;;;14.90;59.66;99911.09;6097538;23;20353;-78
2021/09/29 01:44:13;;;;;;;5.32;2.58;;;;;;;14.91;59.83;99918.06;6097064;23;20085;-78
2021/09/29 01:46:40;;;;;;;5.55;2.80;;;;;;;14.93;59.74;99905.56;6098207;23;20029;-78
2021/09/29 01:49:16;;;;;;;7.72;3.20;;;;;;;14.92;60.21;99897.72;6096280;23;20026;-78
2021/09/29 01:51:52;;;;;;;4.05;2.30;;;;;;;14.92;60.58;99901.19;6096333;23;20019;-78
2021/09/29 01:54:24;;;;;;;6.70;2.78;;;;;;;14.95;60.31;99892.22;6096270;23;20387;-78
2021/09/29 01:56:52;;;;;;;6.05;2.35;;;;;;;14.96;59.97;99892.06;6096167;23;20036;-78
2021/09/29 01:59:22;;;;;;;3.28;2.55;;;;;;;14.96;60.42;99894.72;6096081;23;20027;-78
2021/09/29 02:01:52;;;;;;;4.93;2.55;;;;;;;14.97;60.16;99891.13;6096213;23;20026;-78
2021/09/29 02:04:20;;;;;;;7.85;2.72;;;;;;;15.00;59.81;99882.09;6095425;23;20037;-78
2021/09/29 02:06:55;;;;;;;7.40;2.92;;;;;;;14.97;60.29;99872.56;6095849;23;20354;-78
2021/09/29 02:09:23;;;;;;;4.70;2.67;;;;;;;15.02;59.84;99879.34;6097002;23;20037;-78
2021/09/29 02:11:53;;;;;;;6.70;2.88;;;;;;;15.03;60.22;99865.94;6096689;23;20019;-78
2021/09/29 02:14:23;;;;;;;3.63;2.30;;;;;;;15.07;60.03;99866.59;6096304;23;20026;-78
2021/09/29 02:16:54;;;;;;;5.68;2.40;;;;;;;15.09;60.17;99869.97;6097031;23;20037;-78
2021/09/29 02:19:24;;;;;;;5.30;2.45;;;;;;;15.12;60.30;99859.13;6098250;23;20036;-78
2021/09/29 02:21:52;;;;;;;5.82;3.25;;;;;;;15.14;60.18;99865.16;6096270;23;20023;-78
2021/09/29 02:24:22;;;;;;;6.22;2.70;;;;;;;15.15;60.28;99860.72;6096755;23;20029;-78
2021/09/29 02:26:49;;;;;;;6.72;3.17;;;;;;;15.18;59.72;99861.31;6096821;23;20031;-78
2021/09/29 02:29:17;;;;;;;5.25;2.47;;;;;;;15.19;60.01;99856.88;6098691;23;20034;-78
2021/09/29 02:31:44;;;;;;;5.28;2.85;;;;;;;15.20;59.83;99856.75;6096454;23;20018;-78
2021/09/29 02:34:11;;;;;;;5.60;2.53;;;;;;;15.23;59.90;99858.34;6096505;23;20454;-78
2021/09/29 02:36:38;;;;;;;5.05;2.53;;;;;;;15.23;60.12;99856.53;6097663;23;20097;-78
2021/09/29 02:39:05;;;;;;;6.35;2.55;;;;;;;15.24;59.92;99850.25;6096927;23;20034;-78
2021/09/29 02:41:33;;;;;;;4.88;2.30;;;;;;;15.27;59.97;99857.13;6097945;23;20022;-78
2021/09/29 02:44:00;;;;;;;5.95;2.90;;;;;;;15.28;60.20;99855.34;6096512;23;20049;-78
2021/09/29 02:46:28;;;;;;;6.63;2.70;;;;;;;15.28;60.20;99855.34;6096337;23;20026;-78
2021/09/29 02:48:55;;;;;;;6.72;2.70;;;;;;;15.29;59.94;99849.91;6096092;23;20030;-78
2021/09/29 02:51:22;;;;;;;10.30;2.50;;;;;;;15.29;60.11;99849.06;6095860;23;20023;-78
2021/09/29 02:53:49;;;;;;;4.53;2.47;;;;;;;15.30;60.04;99845.44;6095735;23;20327;-78
2021/09/29 02:56:16;;;;;;;6.22;2.58;;;;;;;15.29;60.07;99847.25;6095547;23;20048;-78
2021/09/29 02:58:43;;;;;;;3.95;2.00;;;;;;;15.29;60.09;99839.28;6095786;23;20022;-78
2021/09/29 03:01:09;;;;;;;7.15;2.55;;;;;;;15.29;60.12;99834.00;6095806;23;20037;-79
2021/09/29 03:03:37;;;;;;;6.05;3.00;;;;;;;15.29;60.12;99833.16;6095779;23;20350;-78
2021/09/29 03:06:03;;;;;;;6.20;2.55;;;;;;;15.30;60.16;99846.31;6095539;23;20022;-78
2021/09/29 03:08:30;;;;;;;4.93;2.38;;;;;;;15.31;60.02;99833.88;6098240;23;20022;-78
2021/09/29 03:10:57;;;;;;;5.82;2.72;;;;;;;15.31;59.92;99840.03;6096593;23;20318;-78
2021/09/29 03:13:24;;;;;;;4.25;2.10;;;;;;;15.30;59.84;99832.19;6096332;23;20018;-78
2021/09/29 03:15:52;;;;;;;6.15;2.05;;;;;;;15.30;59.95;99834.84;6095876;23;20030;-78
2021/09/29 03:18:19;;;;;;;5.10;2.60;;;;;;;15.31;60.04;99833.88;6096231;23;20031;-78
2021/09/29 03:20:46;;;;;;;6.53;2.28;;;;;;;15.31;60.17;99833.88;6095843;23;20064;-78
2021/09/29 03:23:22;;;;;;;3.88;2.30;;;;;;;15.28;60.59;99834.97;6097847;23;20022;-78
2021/09/29 03:25:49;;;;;;;5.70;2.70;;;;;;;15.32;60.07;99828.47;6096229;23;20468;-78
2021/09/29 03:28:16;;;;;;;6.00;2.55;;;;;;;15.33;60.11;99827.50;6096512;23;20442;-78
2021/09/29 03:30:42;;;;;;;4.53;2.65;;;;;;;15.35;60.15;99824.72;6096126;23;20030;-78
2021/09/29 03:33:09;;;;;;;5.60;2.50;;;;;;;15.36;60.25;99829.06;6096379;23;20383;-78
2021/09/29 03:35:36;;;;;;;3.83;2.38;;;;;;;15.37;60.18;99818.34;6096636;23;20022;-78
2021/09/29 03:38:03;;;;;;;4.18;2.33;;;;;;;15.39;60.05;99820.06;6096290;23;20402;-78
2021/09/29 03:40:34;;;;;;;7.72;2.50;;;;;;;15.39;60.00;99817.41;6096732;23;20331;-78
2021/09/29 03:43:01;;;;;;;7.65;2.90;;;;;;;15.41;59.49;99821.63;6095869;23;20028;-78
2021/09/29 03:45:28;;;;;;;6.22;2.78;;;;;;;15.42;59.59;99806.53;6097807;23;20028;-78
2021/09/29 03:47:58;;;;;;;6.97;2.60;;;;;;;15.42;60.26;99817.16;6095018;23;20026;-78
2021/09/29 03:50:25;;;;;;;6.85;2.60;;;;;;;15.45;60.14;99811.63;6095121;23;20041;-78
2021/09/29 03:52:51;;;;;;;5.30;2.45;;;;;;;15.47;60.24;99814.97;6095261;23;20042;-78
2021/09/29 03:55:18;;;;;;;6.32;2.53;;;;;;;15.47;59.53;99794.63;6094782;23;20105;-78
2021/09/29 03:57:51;;;;;;;4.53;2.78;;;;;;;15.46;60.14;99803.53;6096648;23;20040;-78
2021/09/29 04:00:18;;;;;;;4.05;2.40;;;;;;;15.49;59.61;99795.34;6094909;23;20030;-78
2021/09/29 04:02:47;;;;;;;5.43;2.78;;;;;;;15.48;59.47;99795.47;6096398;23;20022;-78
2021/09/29 04:05:15;;;;;;;7.10;3.00;;;;;;;15.47;59.42;99791.97;6094649;23;20081;-78
2021/09/29 04:07:48;;;;;;;4.38;2.15;;;;;;;15.45;59.31;99793.03;6095806;23;20022;-78
2021/09/29 04:10:14;;;;;;;4.53;2.75;;;;;;;15.48;59.22;99790.16;6095775;23;20022;-78
2021/09/29 04:12:46;;;;;;;6.85;2.33;;;;;;;15.44;59.22;99789.53;6095942;23;20045;-78
2021/09/29 04:15:13;;;;;;;6.40;2.90;;;;;;;15.45;58.74;99780.63;6095497;23;20071;-78
2021/09/29 04:17:40;;;;;;;4.13;2.30;;;;;;;15.43;58.53;99782.53;6095656;23;20028;-78
2021/09/29 04:20:08;;;;;;;5.88;2.90;;;;;;;15.42;58.55;99780.00;6095535;23;20036;-78
2021/09/29 04:22:35;;;;;;;5.88;2.33;;;;;;;15.39;58.56;99777.63;6095548;23;20348;-78
2021/09/29 04:25:02;;;;;;;5.15;2.92;;;;;;;15.36;58.72;99771.56;6095108;23;20030;-78
2021/09/29 04:27:29;;;;;;;5.28;2.67;;;;;;;15.36;58.81;99773.38;6095168;23;20023;-78
2021/09/29 04:29:58;;;;;;;10.02;2.85;;;;;;;15.33;58.73;99778.94;6095399;23;20026;-78
2021/09/29 04:32:25;;;;;;;8.77;3.20;;;;;;;15.33;58.51;99776.28;6095617;23;20101;-78
2021/09/29 04:34:52;;;;;;;8.07;3.35;;;;;;;15.31;58.23;99773.75;6095083;23;20346;-78
2021/09/29 04:37:19;;;;;;;7.85;3.00;;;;;;;15.28;58.66;99760.69;6094896;23;20034;-78
2021/09/29 04:39:46;;;;;;;6.60;3.03;;;;;;;15.25;58.40;99763.59;6095167;23;20354;-78
2021/09/29 04:42:13;;;;;;;7.78;3.10;;;;;;;15.22;58.64;99756.72;6094909;23;20022;-78
2021/09/29 04:44:40;;;;;;;7.50;3.25;;;;;;;15.20;58.44;99760.44;6095599;23;20031;-78
2021/09/29 04:47:08;;;;;;;5.53;3.03;;;;;;;15.17;58.49;99756.22;6096867;23;20037;-78
2021/09/29 04:49:34;;;;;;;5.93;3.13;;;;;;;15.17;58.72;99753.56;6096697;23;20022;-78
2021/09/29 04:52:04;;;;;;;6.38;3.13;;;;;;;15.14;58.83;99761.75;6096822;23;20019;-78
2021/09/29 04:54:30;;;;;;;5.05;3.25;;;;;;;15.15;58.87;99741.41;6096456;23;20030;-78
2021/09/29 04:56:59;;;;;;;5.10;3.25;;;;;;;15.15;59.15;99758.16;6097072;23;20042;-78
2021/09/29 04:59:26;;;;;;;6.70;3.00;;;;;;;15.15;58.90;99747.56;6096935;23;20023;-78
2021/09/29 05:01:57;;;;;;;8.50;3.28;;;;;;;15.14;59.15;99745.03;6098268;23;20022;-78
2021/09/29 05:04:25;;;;;;;5.00;2.63;;;;;;;15.14;58.94;99748.50;6096900;23;20081;-78
2021/09/29 05:06:54;;;;;;;7.93;3.13;;;;;;;15.14;58.87;99751.16;6096672;23;20037;-78
2021/09/29 05:09:21;;;;;;;5.00;3.15;;;;;;;15.13;58.73;99738.84;6096988;23;20027;-78
2021/09/29 05:12:20;;;;;;;6.32;2.92;;;;;;;15.08;59.22;99733.06;6096328;23;20023;-78
2021/09/29 05:14:47;;;;;;;6.45;2.88;;;;;;;15.14;58.74;99737.88;6095155;23;20058;-78
2021/09/29 05:17:13;;;;;;;5.82;3.25;;;;;;;15.12;58.88;99739.81;6096448;23;20105;-78
2021/09/29 05:19:41;;;;;;;7.13;2.80;;;;;;;15.10;58.79;99739.94;6096954;23;20052;-78
2021/09/29 05:22:08;;;;;;;6.70;2.70;;;;;;;15.11;58.86;99746.09;6096361;23;20033;-78
2021/09/29 05:24:37;;;;;;;4.78;3.00;;;;;;;15.07;59.18;99737.50;6098123;23;20022;-78
2021/09/29 05:27:04;;;;;;;6.65;3.55;;;;;;;15.08;58.99;99725.13;6096433;23;20037;-78
2021/09/29 05:29:31;;;;;;;4.10;2.97;;;;;;;15.07;58.82;99718.97;6096847;23;20346;-78
2021/09/29 05:32:10;;;;;;;5.82;3.08;;;;;;;15.02;59.06;99729.06;6096413;23;20029;-78
2021/09/29 05:34:38;;;;;;;7.72;3.47;;;;;;;15.05;58.79;99730.66;6096395;23;20620;-78
2021/09/29 05:37:05;;;;;;;10.55;3.55;;;;;;;15.03;58.66;99733.41;6096288;23;20030;-77
2021/09/29 05:39:34;;;;;;;7.72;3.10;;;;;;;15.00;58.87;99732.81;6097833;23;20030;-80
2021/09/29 05:42:01;;;;;;;4.78;3.13;;;;;;;14.98;58.80;99732.91;6099000;23;20037;-78
2021/09/29 05:44:37;;;;;;;6.13;3.08;;;;;;;14.93;59.38;99729.78;6096907;23;20028;-77
2021/09/29 05:47:05;;;;;;;5.00;3.20;;;;;;;14.95;59.07;99727.88;6096825;23;20023;-77
2021/09/29 05:49:32;;;;;;;7.75;3.03;;;;;;;14.94;59.06;99716.41;6096884;23;20029;-77
2021/09/29 05:51:58;;;;;;;5.50;3.55;;;;;;;14.95;58.96;99715.44;6096776;23;20041;-77
2021/09/29 05:54:25;;;;;;;7.30;3.30;;;;;;;14.95;59.11;99717.28;6096628;23;20029;-77
2021/09/29 05:56:52;;;;;;;7.90;3.50;;;;;;;14.94;59.13;99705.81;6096407;23;20022;-77
2021/09/29 05:59:19;;;;;;;5.18;3.50;;;;;;;14.95;59.09;99707.50;6096827;23;20030;-77
2021/09/29 06:01:46;;;;;;;7.00;3.25;;;;;;;14.95;59.09;99704.84;6097007;23;20028;-77
2021/09/29 06:04:12;;;;;;;6.88;3.45;;;;;;;14.95;59.02;99707.50;6097083;23;20022;-81
2021/09/29 06:06:44;;;;;;;6.20;3.47;;;;;;;14.93;59.15;99709.44;6097051;23;20026;-81
2021/09/29 06:09:11;;;;;;;7.72;3.55;;;;;;;14.94;58.91;99718.22;6096957;23;20026;-81
2021/09/29 06:11:38;;;;;;;7.00;3.88;;;;;;;14.93;58.87;99711.22;6096710;23;20032;-81
2021/09/29 06:14:18;;;;;;;9.38;4.00;;;;;;;14.87;59.16;99714.34;6095638;23;20025;-80
2021/09/29 06:16:47;;;;;;;9.02;3.92;;;;;;;14.89;59.08;99700.03;6095861;23;20326;-81
2021/09/29 06:19:27;;;;;;;10.20;4.15;;;;;;;14.84;59.73;99703.00;6096371;23;20398;-80
2021/09/29 06:21:54;;;;;;;5.28;3.33;;;;;;;14.89;59.36;99699.16;6095881;23;20026;-81
2021/09/29 06:24:21;;;;;;;6.00;3.83;;;;;;;14.89;59.55;99699.16;6095927;23;20370;-80
2021/09/29 06:26:48;;;;;;;7.75;3.83;;;;;;;14.90;59.55;99690.25;6095630;23;20036;-80
2021/09/29 06:29:28;;;;;;;6.05;3.22;;;;;;;14.87;59.80;99683.38;6095230;23;20022;-81
2021/09/29 06:31:56;;;;;;;5.78;3.28;;;;;;;14.93;59.59;99687.38;6095678;23;20022;-81
2021/09/29 06:34:30;;;;;;;5.50;3.72;;;;;;;14.92;59.88;99681.22;6095531;23;20031;-80
2021/09/29 06:36:57;;;;;;;5.15;3.45;;;;;;;14.95;59.47;99677.53;6096105;23;20135;-80
2021/09/29 06:39:24;;;;;;;4.53;3.30;;;;;;;14.97;59.55;99680.88;6096002;23;20347;-80
2021/09/29 06:41:52;;;;;;;7.80;3.90;;;;;;;14.96;59.53;99676.53;6096081;23;20031;-80
2021/09/29 06:44:18;;;;;;;4.05;3.42;;;;;;;14.97;59.45;99680.88;6095585;23;20346;-81
2021/09/29 06:46:51;;;;;;;6.35;3.38;;;;;;;14.96;59.43;99685.31;6095975;23;20033;-80
2021/09/29 06:49:18;;;;;;;7.07;4.13;;;;;;;14.97;59.41;99678.22;6095880;23;20466;-81
2021/09/29 06:51:45;;;;;;;6.07;3.80;;;;;;;14.97;59.49;99679.09;6095516;23;20029;-80
2021/09/29 06:54:19;;;;;;;5.40;3.50;;;;;;;14.93;59.74;99674.13;6095664;23;20018;-80
2021/09/29 06:56:45;;;;;;;8.02;3.42;;;;;;;14.95;59.21;99681.00;6095527;23;20028;-81
2021/09/29 06:59:12;;;;;;;6.50;3.30;;;;;;;14.96;59.29;99679.19;6096889;23;20036;-80
2021/09/29 07:01:51;;;;;;;5.68;3.53;;;;;;;14.91;59.60;99676.88;6095797;23;20485;-81
2021/09/29 07:04:18;;;;;;;7.30;3.60;;;;;;;14.96;59.38;99681.84;6095065;23;20018;-80
2021/09/29 07:06:45;;;;;;;5.43;3.22;;;;;;;14.96;59.59;99674.72;6095439;23;20079;-81
2021/09/29 07:09:16;;;;;;;6.55;3.50;;;;;;;14.96;59.83;99674.72;6096551;23;20028;-80
2021/09/29 07:11:42;;;;;;;5.40;3.47;;;;;;;15.01;59.71;99674.38;6095420;23;20041;-80
2021/09/29 07:14:09;;;;;;;9.30;3.85;;;;;;;15.05;59.69;99675.84;6096972;23;20029;-80
2021/09/29 07:16:37;;;;;;;11.50;4.05;;;;;;;15.09;59.71;99673.78;6095358;23;20023;-80
2021/09/29 07:19:23;;;;;;;6.88;3.85;;;;;;;15.10;60.05;99676.31;6096996;23;20022;-81
2021/09/29 07:21:49;;;;;;;7.90;2.95;;;;;;;15.21;59.91;99675.47;6095675;23;20338;-81
2021/09/29 07:24:18;;;;;;;9.07;3.85;;;;;;;15.26;59.92;99682.22;6095041;23;20109;-81
2021/09/29 07:26:45;;;;;;;6.82;3.60;;;;;;;15.33;59.79;99675.50;6095299;23;20036;-81
2021/09/29 07:29:13;;;;;;;6.35;2.90;;;;;;;15.37;59.98;99659.19;6095628;23;20030;-81
2021/09/29 07:31:40;;;;;;;10.68;3.58;;;;;;;15.45;59.50;99669.22;6095210;23;20026;-81
2021/09/29 07:34:16;;;;;;;5.05;3.08;;;;;;;15.50;59.83;99672.34;6094943;23;20030;-81
2021/09/29 07:36:43;;;;;;;8.57;3.65;;;;;;;15.60;59.59;99663.66;6095680;23;20030;-81
2021/09/29 07:39:10;;;;;;;7.50;3.38;;;;;;;15.67;59.53;99672.81;6095218;23;20036;-81
2021/09/29 07:41:52;;;;;;;6.72;3.10;;;;;;;15.70;59.78;99667.25;6095543;23;20353;-80
2021/09/29 07:44:19;;;;;;;7.05;3.15;;;;;;;15.81;59.46;99663.72;6095239;23;20022;-81
2021/09/29 07:46:47;;;;;;;4.45;3.28;;;;;;;15.89;59.71;99663.13;6095488;23;20338;-81
2021/09/29 07:49:16;;;;;;;6.15;3.33;;;;;;;15.96;59.63;99669.66;6095271;23;20026;-81
2021/09/29 07:51:43;;;;;;;5.22;2.80;;;;;;;16.06;59.79;99666.22;6095108;23;20101;-81
2021/09/29 07:54:10;;;;;;;10.00;3.30;;;;;;;16.17;59.57;99663.56;6095136;23;20442;-81
2021/09/29 07:56:36;;;;;;;8.32;3.28;;;;;;;16.27;59.25;99663.66;6095447;23;20027;-81
2021/09/29 07:59:03;;;;;;;8.02;3.90;;;;;;;16.37;58.96;99661.06;6095049;23;20022;-81
2021/09/29 08:01:30;;;;;;;9.20;2.83;;;;;;;16.47;58.86;99658.47;6094847;23;20022;-81
2021/09/29 08:03:57;;;;;;;7.57;3.28;;;;;;;16.54;58.72;99660.50;6094812;23;20064;-81
2021/09/29 08:06:39;;;;;;;5.15;2.72;;;;;;;16.59;58.05;99643.34;6095573;23;20030;-81
2021/09/29 08:09:10;;;;;;;8.05;3.13;;;;;;;16.70;58.45;99645.09;6095461;23;20395;-81
2021/09/29 08:11:40;;;;;;;6.28;2.55;;;;;;;16.75;58.16;99650.84;6093253;23;20458;-78
2021/09/29 08:14:07;;;;;;;7.80;2.90;;;;;;;16.79;57.72;99649.63;6095071;23;20442;-78
2021/09/29 08:16:34;;;;;;;7.88;3.03;;;;;;;16.82;57.73;99653.81;6094888;23;20358;-78
2021/09/29 08:19:01;;;;;;;6.10;3.03;;;;;;;16.82;57.67;99654.66;6095024;23;20027;-78
2021/09/29 08:21:29;;;;;;;6.07;2.97;;;;;;;16.81;57.42;99647.66;6097117;23;20034;-78
2021/09/29 08:24:09;;;;;;;5.75;2.65;;;;;;;16.79;57.58;99639.81;6096692;23;20026;-78
2021/09/29 08:37:52;;;;;;;4.63;2.67;;;;;;;16.76;58.21;99626.81;6079248;23;20045;-78
2021/09/29 08:40:23;;;;;;;7.20;2.72;;;;;;;16.76;58.23;99621.47;6097169;23;20026;-78
2021/09/29 08:45:35;;;;;;;7.47;2.88;;;;;;;16.74;58.24;99620.75;6097081;23;20028;-78
2021/09/29 08:53:53;;;;;;;5.43;2.60;;;;;;;16.70;58.46;99599.91;6098389;23;20017;-78
2021/09/29 09:15:53;;;;;;;7.28;2.67;;;;;;;16.56;59.47;99609.88;6097738;23;20045;-78
2021/09/29 09:18:21;;;;;;;6.55;2.60;;;;;;;16.58;59.62;99610.59;6096870;23;20487;-78
2021/09/29 09:21:09;;;;;;;5.68;2.40;;;;;;;16.58;59.88;99612.41;6096389;23;20026;-78
2021/09/29 09:23:41;;;;;;;4.60;2.20;;;;;;;16.60;59.93;99605.97;6096260;23;20093;-78
2021/09/29 09:26:12;;;;;;;4.95;2.50;;;;;;;16.63;60.47;99597.75;6096732;23;20033;-78
2021/09/29 09:28:39;;;;;;;4.25;2.47;;;;;;;16.70;60.39;99594.59;6096333;23;20038;-78
2021/09/29 09:31:17;;;;;;;7.15;2.58;;;;;;;16.73;61.07;99592.50;6096291;23;20031;-78
2021/09/29 09:33:52;;;;;;;8.05;2.90;;;;;;;16.83;60.74;99578.41;6096246;23;20023;-78
2021/09/29 09:36:27;;;;;;;5.72;2.80;;;;;;;16.94;60.59;99583.66;6096496;23;20098;-78
2021/09/29 09:38:55;;;;;;;7.43;2.60;;;;;;;17.08;60.50;99577.13;6096518;23;20022;-78
2021/09/29 09:41:23;;;;;;;6.22;2.40;;;;;;;17.21;60.29;99571.59;6096730;23;20031;-78
2021/09/29 09:43:57;;;;;;;6.18;2.42;;;;;;;17.31;59.95;99575.13;6096298;23;20026;-78
2021/09/29 09:46:24;;;;;;;8.30;2.15;;;;;;;17.43;60.02;99572.34;6096547;23;20026;-78
2021/09/29 09:49:11;;;;;;;6.80;2.33;;;;;;;17.47;59.42;99571.09;6096565;23;20472;-78
2021/09/29 09:51:50;;;;;;;6.53;2.70;;;;;;;17.54;58.49;99572.22;6095992;23;20027;-78
2021/09/29 09:54:19;;;;;;;4.20;2.40;;;;;;;17.59;58.57;99563.84;6096373;23;20557;-78
2021/09/29 09:56:56;;;;;;;4.50;2.20;;;;;;;17.57;58.53;99563.97;6096248;23;20033;-78
2021/09/29 09:59:30;;;;;;;5.07;2.30;;;;;;;17.55;58.32;99562.44;6095959;23;20027;-78
2021/09/29 10:01:57;;;;;;;7.00;2.13;;;;;;;17.57;58.42;99560.50;6096108;23;20023;-78
2021/09/29 10:04:27;;;;;;;6.20;2.65;;;;;;;17.54;58.58;99568.75;6095742;23;20049;-78
2021/09/29 10:06:54;;;;;;;5.72;2.38;;;;;;;17.52;58.34;99555.56;6096427;23;20342;-78
2021/09/29 10:09:32;;;;;;;5.18;2.17;;;;;;;17.48;58.50;99556.81;6092089;23;20353;-79
2021/09/29 10:28:41;;;;;;;5.45;2.22;;;;;;;17.01;59.35;99552.88;6097276;23;20109;-78
2021/09/29 10:34:05;;;;;;;4.50;2.83;;;;;;;16.83;61.05;99541.19;6097216;23;20022;-78
2021/09/29 10:36:48;;;;;;;3.95;2.28;;;;;;;16.78;61.41;99544.25;6096048;23;20032;-78
2021/09/29 10:42:19;;;;;;;5.55;2.08;;;;;;;16.70;61.43;99541.44;6097288;23;20076;-79
2021/09/29 11:32:20;;;;;;;2.47;1.40;;;;;;;16.01;63.24;99568.41;6096813;23;20027;-78
2021/09/29 11:34:51;;;;;;;2.30;1.40;;;;;;;16.05;62.81;99571.63;6095395;23;20056;-78
2021/09/29 12:09:03;;;;;;;2.15;1.40;;;;;;;15.99;62.54;99587.09;6096496;23;20037;-78
2021/09/29 12:14:18;;;;;;;2.17;1.35;;;;;;;15.93;63.40;99587.59;6096644;23;20026;-78
2021/09/29 12:16:48;;;;;;;1.70;1.25;;;;;;;15.90;63.32;99586.00;6095054;23;20026;-78
2021/09/29 12:24:33;;;;;;;1.70;1.20;;;;;;;15.85;63.99;99600.66;6096098;23;20022;-78
2021/09/29 12:27:00;;;;;;;1.42;1.10;;;;;;;15.87;63.00;99594.25;6095271;23;20034;-78
2021/09/29 12:29:35;;;;;;;1.23;0.98;;;;;;;15.83;63.37;99602.56;6095344;23;20026;-78
2021/09/29 12:37:54;;;;;;;2.35;1.20;;;;;;;15.74;62.67;99605.00;6096808;23;20026;-78
2021/09/29 12:40:21;;;;;;;2.05;1.17;;;;;;;15.72;62.70;99629.97;6095114;23;20027;-78
2021/09/29 12:43:00;;;;;;;1.10;1.00;;;;;;;15.64;63.81;99620.81;6095067;23;20030;-78
2021/09/29 12:45:31;;;;;;;1.20;0.98;;;;;;;15.64;63.21;99625.31;6095014;23;20026;-78
2021/09/29 12:48:03;;;;;;;1.38;1.20;;;;;;;15.62;63.03;99624.56;6094675;23;20540;-78
2021/09/29 12:50:52;;;;;;;0.90;0.90;;;;;;;15.61;63.42;99623.75;6095185;23;20026;-78
2021/09/29 12:53:47;;;;;;;1.27;1.17;;;;;;;15.61;63.17;99636.16;6094981;23;20030;-78
2021/09/29 12:56:17;;;;;;;2.17;1.05;;;;;;;15.62;63.19;99637.84;6095219;23;20342;-78
2021/09/29 12:58:46;;;;;;;3.03;1.05;;;;;;;15.60;63.05;99639.78;6094837;23;20034;-78
2021/09/29 13:01:15;;;;;;;2.08;1.10;;;;;;;15.58;63.14;99650.50;6095239;23;20022;-78
2021/09/29 13:03:43;;;;;;;1.27;0.85;;;;;;;15.57;62.72;99642.66;6094470;23;20070;-78
2021/09/29 13:06:10;;;;;;;1.88;0.90;;;;;;;15.56;62.71;99652.47;6095931;23;20480;-78
2021/09/29 13:08:37;;;;;;;1.58;0.90;;;;;;;15.54;62.70;99666.78;6097157;23;20430;-78
2021/09/29 13:11:04;;;;;;;1.50;1.00;;;;;;;15.50;62.39;99652.94;6096442;23;20023;-78
2021/09/29 13:13:35;;;;;;;1.70;0.80;;;;;;;15.46;63.04;99670.91;6097941;23;20026;-78
2021/09/29 13:16:06;;;;;;;0.95;0.75;;;;;;;15.46;63.13;99680.66;6096614;23;20033;-78
2021/09/29 13:21:42;;;;;;;0.80;0.70;;;;;;;15.45;62.45;99679.84;6097877;23;20065;-78
2021/09/29 13:27:26;;;;;;;0.52;0.47;;;;;;;15.40;62.15;99697.91;6098575;23;20030;-78
2021/09/29 13:38:28;;;;;;;2.42;0.52;;;;;;;15.21;61.16;99722.34;6097868;23;20023;-78
2021/09/29 13:40:56;;;;;;;4.32;0.63;;;;;;;15.13;61.41;99738.03;6096451;23;20395;-78
2021/09/29 13:43:22;;;;;;;0.88;0.52;;;;;;;15.06;61.09;99738.47;6096508;23;20068;-78
2021/09/29 13:45:53;;;;;;;0.40;0.40;;;;;;;14.96;61.70;99732.22;6096499;23;20026;-78
2021/09/29 13:48:20;;;;;;;2.70;0.60;;;;;;;14.92;61.53;99741.34;6096298;23;20033;-78
2021/09/29 13:50:48;;;;;;;0.65;0.40;;;;;;;14.84;61.71;99752.53;6096131;23;20113;-78
2021/09/29 13:53:15;;;;;;;1.27;0.55;;;;;;;14.80;61.60;99753.72;6096563;23;20046;-79
2021/09/29 13:55:46;;;;;;;0.40;0.40;;;;;;;14.73;61.76;99761.25;6096243;23;20077;-78
2021/09/29 13:58:29;;;;;;;0.65;0.50;;;;;;;14.71;62.06;99769.31;6096213;23;20105;-79
2021/09/29 14:01:21;;;;;;;1.10;0.67;;;;;;;14.68;61.72;99764.25;6096701;23;20461;-78
2021/09/29 14:29:08;;;;;;;0.50;0.50;;;;;;;14.47;62.92;99764.03;6097723;23;20026;-78
2021/09/29 14:31:50;;;;;;;0.65;0.50;;;;;;;14.50;63.12;99770.91;6096011;23;20037;-79
2021/09/29 14:34:18;;;;;;;1.08;0.45;;;;;;;14.56;62.98;99768.66;6095902;23;20033;-78
2021/09/29 14:36:48;;;;;;;0.50;0.50;;;;;;;14.61;63.44;99767.47;6095646;23;20032;-78
2021/09/29 14:39:15;;;;;;;1.58;0.60;;;;;;;14.69;63.84;99773.88;6097350;23;20030;-79
2021/09/29 14:41:44;;;;;;;0.60;0.30;;;;;;;14.81;63.86;99779.25;6096015;23;20030;-78
2021/09/29 14:44:11;;;;;;;0.35;0.32;;;;;;;14.96;63.61;99770.13;6095837;23;20492;-78
2021/09/29 14:46:45;;;;;;;0.40;0.40;;;;;;;15.12;62.81;99774.28;6095564;23;20022;-79
2021/09/29 14:49:12;;;;;;;0.57;0.30;;;;;;;15.27;62.66;99776.72;6095932;23;20441;-79
2021/09/29 14:51:39;;;;;;;0.73;0.50;;;;;;;15.36;62.16;99783.97;6095528;23;20022;-78
2021/09/29 14:54:06;;;;;;;1.95;0.50;;;;;;;15.46;62.10;99786.75;6095263;23;20032;-78
2021/09/29 14:56:33;;;;;;;2.83;0.65;;;;;;;15.59;63.02;99784.03;6095647;23;20031;-78
2021/09/29 14:59:01;;;;;;;1.25;0.82;;;;;;;15.81;63.49;99769.91;6095923;23;20450;-78
2021/09/29 15:01:32;;;;;;;2.17;0.45;;;;;;;16.07;62.36;99780.28;6095441;23;20031;-78